sensor_id;sensor_type;location;lat;lon;timestamp;P1;durP1;ratioP1;P2;durP2;ratioP2
55114;SDS011;41010;53.252;5.786;2024-03-02T00:00:30;2.75;;;1.20;;
55114;SDS011;41010;53.252;5.786;2024-03-02T00:02:57;3.75;;;1.10;;
55114;SDS011;41010;53.252;5.786;2024-03-02T00:05:24;2.28;;;1.20;;
55114;SDS011;41010;53.252;5.786;2024-03-02T00:07:54;2.40;;;1.35;;
55114;SDS011;41010;53.252;5.786;2024-03-02T00:10:22;4.80;;;1.17;;
55114;SDS011;41010;53.252;5.786;2024-03-02T00:12:50;3.53;;;1.20;;
55114;SDS011;41010;53.252;5.786;2024-03-02T00:15:28;2.88;;;1.17;;
55114;SDS011;41010;53.252;5.786;2024-03-02T00:18:01;2.95;;;1.15;;
55114;SDS011;41010;53.252;5.786;2024-03-02T00:20:30;3.60;;;1.38;;
55114;SDS011;41010;53.252;5.786;2024-03-02T00:23:03;3.17;;;1.20;;
55114;SDS011;41010;53.252;5.786;2024-03-02T00:25:35;2.83;;;1.10;;
55114;SDS011;41010;53.252;5.786;2024-03-02T00:28:03;2.87;;;1.10;;
55114;SDS011;41010;53.252;5.786;2024-03-02T00:30:41;3.30;;;1.15;;
55114;SDS011;41010;53.252;5.786;2024-03-02T00:33:13;3.38;;;1.30;;
55114;SDS011;41010;53.252;5.786;2024-03-02T00:35:40;2.97;;;1.42;;
55114;SDS011;41010;53.252;5.786;2024-03-02T00:38:12;2.97;;;1.50;;
55114;SDS011;41010;53.252;5.786;2024-03-02T00:40:40;3.35;;;1.42;;
55114;SDS011;41010;53.252;5.786;2024-03-02T00:43:10;4.68;;;1.25;;
55114;SDS011;41010;53.252;5.786;2024-03-02T00:45:39;5.63;;;1.58;;
55114;SDS011;41010;53.252;5.786;2024-03-02T00:48:06;3.50;;;1.50;;
55114;SDS011;41010;53.252;5.786;2024-03-02T00:50:35;2.70;;;1.55;;
55114;SDS011;41010;53.252;5.786;2024-03-02T00:53:02;2.97;;;1.50;;
55114;SDS011;41010;53.252;5.786;2024-03-02T00:55:30;3.58;;;1.67;;
55114;SDS011;41010;53.252;5.786;2024-03-02T00:57:58;4.28;;;2.05;;
55114;SDS011;41010;53.252;5.786;2024-03-02T01:00:25;2.97;;;1.70;;
55114;SDS011;41010;53.252;5.786;2024-03-02T01:02:52;3.08;;;1.67;;
55114;SDS011;41010;53.252;5.786;2024-03-02T01:05:19;4.13;;;1.88;;
55114;SDS011;41010;53.252;5.786;2024-03-02T01:07:47;3.70;;;1.73;;
55114;SDS011;41010;53.252;5.786;2024-03-02T01:10:14;2.80;;;1.60;;
55114;SDS011;41010;53.252;5.786;2024-03-02T01:12:43;4.32;;;1.98;;
55114;SDS011;41010;53.252;5.786;2024-03-02T01:15:10;3.88;;;1.70;;
55114;SDS011;41010;53.252;5.786;2024-03-02T01:17:37;2.95;;;1.42;;
55114;SDS011;41010;53.252;5.786;2024-03-02T01:20:06;3.83;;;1.58;;
55114;SDS011;41010;53.252;5.786;2024-03-02T01:22:34;3.38;;;1.73;;
55114;SDS011;41010;53.252;5.786;2024-03-02T01:25:02;2.67;;;1.30;;
55114;SDS011;41010;53.252;5.786;2024-03-02T01:27:30;3.85;;;1.40;;
55114;SDS011;41010;53.252;5.786;2024-03-02T01:29:58;3.60;;;1.40;;
55114;SDS011;41010;53.252;5.786;2024-03-02T01:32:26;4.88;;;1.65;;
55114;SDS011;41010;53.252;5.786;2024-03-02T01:34:53;2.67;;;1.40;;
55114;SDS011;41010;53.252;5.786;2024-03-02T01:37:20;3.08;;;1.52;;
55114;SDS011;41010;53.252;5.786;2024-03-02T01:39:47;2.22;;;1.20;;
55114;SDS011;41010;53.252;5.786;2024-03-02T01:42:15;4.63;;;1.52;;
55114;SDS011;41010;53.252;5.786;2024-03-02T01:44:42;3.70;;;1.30;;
55114;SDS011;41010;53.252;5.786;2024-03-02T01:47:11;2.90;;;1.13;;
55114;SDS011;41010;53.252;5.786;2024-03-02T01:49:38;4.13;;;1.48;;
55114;SDS011;41010;53.252;5.786;2024-03-02T01:52:06;1.88;;;1.10;;
55114;SDS011;41010;53.252;5.786;2024-03-02T01:54:33;3.17;;;1.02;;
55114;SDS011;41010;53.252;5.786;2024-03-02T01:57:00;6.03;;;1.10;;
55114;SDS011;41010;53.252;5.786;2024-03-02T01:59:28;2.05;;;1.02;;
55114;SDS011;41010;53.252;5.786;2024-03-02T02:01:55;2.10;;;0.77;;
55114;SDS011;41010;53.252;5.786;2024-03-02T02:04:24;2.00;;;0.90;;
55114;SDS011;41010;53.252;5.786;2024-03-02T02:06:52;2.50;;;1.10;;
55114;SDS011;41010;53.252;5.786;2024-03-02T02:09:20;3.53;;;1.10;;
55114;SDS011;41010;53.252;5.786;2024-03-02T02:11:47;3.15;;;1.10;;
55114;SDS011;41010;53.252;5.786;2024-03-02T02:14:14;1.77;;;1.00;;
55114;SDS011;41010;53.252;5.786;2024-03-02T02:16:51;3.17;;;1.00;;
55114;SDS011;41010;53.252;5.786;2024-03-02T02:19:18;2.30;;;1.00;;
55114;SDS011;41010;53.252;5.786;2024-03-02T02:21:47;4.10;;;1.10;;
55114;SDS011;41010;53.252;5.786;2024-03-02T02:24:14;4.18;;;1.20;;
55114;SDS011;41010;53.252;5.786;2024-03-02T02:26:41;2.53;;;1.00;;
55114;SDS011;41010;53.252;5.786;2024-03-02T02:29:08;6.72;;;1.05;;
55114;SDS011;41010;53.252;5.786;2024-03-02T02:31:36;4.03;;;1.33;;
55114;SDS011;41010;53.252;5.786;2024-03-02T02:34:04;1.67;;;0.80;;
55114;SDS011;41010;53.252;5.786;2024-03-02T02:36:31;3.05;;;1.23;;
55114;SDS011;41010;53.252;5.786;2024-03-02T02:39:00;2.28;;;1.02;;
55114;SDS011;41010;53.252;5.786;2024-03-02T02:41:29;2.03;;;0.80;;
55114;SDS011;41010;53.252;5.786;2024-03-02T02:43:56;3.38;;;1.05;;
55114;SDS011;41010;53.252;5.786;2024-03-02T02:46:24;2.40;;;0.90;;
55114;SDS011;41010;53.252;5.786;2024-03-02T02:48:51;2.50;;;0.90;;
55114;SDS011;41010;53.252;5.786;2024-03-02T02:51:18;2.80;;;1.00;;
55114;SDS011;41010;53.252;5.786;2024-03-02T02:53:46;4.57;;;0.75;;
55114;SDS011;41010;53.252;5.786;2024-03-02T02:56:14;2.95;;;0.85;;
55114;SDS011;41010;53.252;5.786;2024-03-02T02:58:42;2.75;;;0.80;;
55114;SDS011;41010;53.252;5.786;2024-03-02T03:01:09;2.38;;;0.88;;
55114;SDS011;41010;53.252;5.786;2024-03-02T03:03:36;2.30;;;1.10;;
55114;SDS011;41010;53.252;5.786;2024-03-02T03:06:04;2.17;;;0.98;;
55114;SDS011;41010;53.252;5.786;2024-03-02T03:08:31;1.95;;;0.80;;
55114;SDS011;41010;53.252;5.786;2024-03-02T03:10:58;2.40;;;0.90;;
55114;SDS011;41010;53.252;5.786;2024-03-02T03:13:27;2.22;;;1.17;;
55114;SDS011;41010;53.252;5.786;2024-03-02T03:15:54;2.58;;;0.90;;
55114;SDS011;41010;53.252;5.786;2024-03-02T03:18:21;3.80;;;0.75;;
55114;SDS011;41010;53.252;5.786;2024-03-02T03:20:49;2.13;;;0.85;;
55114;SDS011;41010;53.252;5.786;2024-03-02T03:23:16;3.78;;;0.90;;
55114;SDS011;41010;53.252;5.786;2024-03-02T03:25:43;1.48;;;0.63;;
55114;SDS011;41010;53.252;5.786;2024-03-02T03:28:10;5.38;;;1.08;;
55114;SDS011;41010;53.252;5.786;2024-03-02T03:30:39;2.05;;;0.80;;
55114;SDS011;41010;53.252;5.786;2024-03-02T03:33:06;4.00;;;0.82;;
55114;SDS011;41010;53.252;5.786;2024-03-02T03:35:34;2.53;;;0.80;;
55114;SDS011;41010;53.252;5.786;2024-03-02T03:38:01;4.22;;;0.80;;
55114;SDS011;41010;53.252;5.786;2024-03-02T03:40:28;4.72;;;0.70;;
55114;SDS011;41010;53.252;5.786;2024-03-02T03:42:55;1.88;;;0.98;;
55114;SDS011;41010;53.252;5.786;2024-03-02T03:45:23;1.42;;;0.77;;
55114;SDS011;41010;53.252;5.786;2024-03-02T03:47:53;2.35;;;0.77;;
55114;SDS011;41010;53.252;5.786;2024-03-02T03:50:20;2.97;;;0.77;;
55114;SDS011;41010;53.252;5.786;2024-03-02T03:52:48;3.88;;;0.70;;
55114;SDS011;41010;53.252;5.786;2024-03-02T03:55:15;2.05;;;0.70;;
55114;SDS011;41010;53.252;5.786;2024-03-02T03:57:42;3.67;;;0.70;;
55114;SDS011;41010;53.252;5.786;2024-03-02T04:00:10;1.70;;;0.60;;
55114;SDS011;41010;53.252;5.786;2024-03-02T04:02:37;1.95;;;0.70;;
55114;SDS011;41010;53.252;5.786;2024-03-02T04:05:06;2.53;;;0.52;;
55114;SDS011;41010;53.252;5.786;2024-03-02T04:07:35;0.77;;;0.30;;
55114;SDS011;41010;53.252;5.786;2024-03-02T04:10:07;0.90;;;0.32;;
55114;SDS011;41010;53.252;5.786;2024-03-02T04:12:34;0.75;;;0.30;;
55114;SDS011;41010;53.252;5.786;2024-03-02T04:15:02;1.50;;;0.40;;
55114;SDS011;41010;53.252;5.786;2024-03-02T04:17:31;0.10;;;0.10;;
55114;SDS011;41010;53.252;5.786;2024-03-02T04:19:59;0.63;;;0.20;;
55114;SDS011;41010;53.252;5.786;2024-03-02T04:22:28;1.38;;;0.20;;
55114;SDS011;41010;53.252;5.786;2024-03-02T04:24:55;0.75;;;0.20;;
55114;SDS011;41010;53.252;5.786;2024-03-02T04:27:22;0.63;;;0.28;;
55114;SDS011;41010;53.252;5.786;2024-03-02T04:29:49;2.72;;;0.30;;
55114;SDS011;41010;53.252;5.786;2024-03-02T04:32:17;0.25;;;0.10;;
55114;SDS011;41010;53.252;5.786;2024-03-02T04:34:44;1.52;;;0.30;;
55114;SDS011;41010;53.252;5.786;2024-03-02T04:37:12;0.20;;;0.20;;
55114;SDS011;41010;53.252;5.786;2024-03-02T04:39:41;0.80;;;0.20;;
55114;SDS011;41010;53.252;5.786;2024-03-02T04:42:08;0.10;;;0.10;;
55114;SDS011;41010;53.252;5.786;2024-03-02T04:44:35;0.63;;;0.10;;
55114;SDS011;41010;53.252;5.786;2024-03-02T04:47:03;1.00;;;0.32;;
55114;SDS011;41010;53.252;5.786;2024-03-02T04:49:30;0.55;;;0.20;;
55114;SDS011;41010;53.252;5.786;2024-03-02T04:51:57;0.30;;;0.20;;
55114;SDS011;41010;53.252;5.786;2024-03-02T04:54:25;0.95;;;0.20;;
55114;SDS011;41010;53.252;5.786;2024-03-02T04:56:53;1.00;;;0.30;;
55114;SDS011;41010;53.252;5.786;2024-03-02T04:59:20;1.00;;;0.22;;
55114;SDS011;41010;53.252;5.786;2024-03-02T05:01:48;0.13;;;0.13;;
55114;SDS011;41010;53.252;5.786;2024-03-02T05:04:15;0.68;;;0.20;;
55114;SDS011;41010;53.252;5.786;2024-03-02T05:06:43;1.08;;;0.30;;
55114;SDS011;41010;53.252;5.786;2024-03-02T05:09:15;2.30;;;0.32;;
55114;SDS011;41010;53.252;5.786;2024-03-02T05:11:43;0.43;;;0.20;;
55114;SDS011;41010;53.252;5.786;2024-03-02T05:14:37;0.70;;;0.30;;
55114;SDS011;41010;53.252;5.786;2024-03-02T05:17:04;1.02;;;0.20;;
55114;SDS011;41010;53.252;5.786;2024-03-02T05:19:32;0.30;;;0.20;;
55114;SDS011;41010;53.252;5.786;2024-03-02T05:21:59;0.32;;;0.10;;
55114;SDS011;41010;53.252;5.786;2024-03-02T05:24:26;1.75;;;0.10;;
55114;SDS011;41010;53.252;5.786;2024-03-02T05:26:53;0.40;;;0.20;;
55114;SDS011;41010;53.252;5.786;2024-03-02T05:29:21;0.57;;;0.22;;
55114;SDS011;41010;53.252;5.786;2024-03-02T05:31:49;1.92;;;0.75;;
55114;SDS011;41010;53.252;5.786;2024-03-02T05:34:17;1.27;;;0.30;;
55114;SDS011;41010;53.252;5.786;2024-03-02T05:36:44;1.85;;;0.40;;
55114;SDS011;41010;53.252;5.786;2024-03-02T05:39:11;0.13;;;0.10;;
55114;SDS011;41010;53.252;5.786;2024-03-02T05:41:39;0.30;;;0.20;;
55114;SDS011;41010;53.252;5.786;2024-03-02T05:44:06;0.85;;;0.30;;
55114;SDS011;41010;53.252;5.786;2024-03-02T05:46:33;0.85;;;0.20;;
55114;SDS011;41010;53.252;5.786;2024-03-02T05:49:02;0.22;;;0.20;;
55114;SDS011;41010;53.252;5.786;2024-03-02T05:51:29;1.58;;;0.47;;
55114;SDS011;41010;53.252;5.786;2024-03-02T05:53:56;1.95;;;0.30;;
55114;SDS011;41010;53.252;5.786;2024-03-02T05:56:24;0.82;;;0.20;;
55114;SDS011;41010;53.252;5.786;2024-03-02T05:58:51;1.50;;;0.30;;
55114;SDS011;41010;53.252;5.786;2024-03-02T06:01:32;1.15;;;0.30;;
55114;SDS011;41010;53.252;5.786;2024-03-02T06:03:59;1.17;;;0.43;;
55114;SDS011;41010;53.252;5.786;2024-03-02T06:06:28;0.20;;;0.20;;
55114;SDS011;41010;53.252;5.786;2024-03-02T06:08:55;0.73;;;0.25;;
55114;SDS011;41010;53.252;5.786;2024-03-02T06:11:22;1.02;;;0.20;;
55114;SDS011;41010;53.252;5.786;2024-03-02T06:13:49;2.00;;;0.57;;
55114;SDS011;41010;53.252;5.786;2024-03-02T06:16:17;0.70;;;0.25;;
55114;SDS011;41010;53.252;5.786;2024-03-02T06:18:44;0.73;;;0.20;;
55114;SDS011;41010;53.252;5.786;2024-03-02T06:21:12;1.95;;;0.30;;
55114;SDS011;41010;53.252;5.786;2024-03-02T06:23:40;1.95;;;0.40;;
55114;SDS011;41010;53.252;5.786;2024-03-02T06:26:08;2.17;;;0.30;;
55114;SDS011;41010;53.252;5.786;2024-03-02T06:28:35;0.95;;;0.22;;
55114;SDS011;41010;53.252;5.786;2024-03-02T06:31:02;1.33;;;0.35;;
55114;SDS011;41010;53.252;5.786;2024-03-02T06:33:30;0.80;;;0.40;;
55114;SDS011;41010;53.252;5.786;2024-03-02T06:35:57;1.30;;;0.40;;
55114;SDS011;41010;53.252;5.786;2024-03-02T06:38:24;3.00;;;0.30;;
55114;SDS011;41010;53.252;5.786;2024-03-02T06:40:53;1.15;;;0.57;;
55114;SDS011;41010;53.252;5.786;2024-03-02T06:43:20;1.98;;;0.38;;
55114;SDS011;41010;53.252;5.786;2024-03-02T06:45:48;1.58;;;0.38;;
55114;SDS011;41010;53.252;5.786;2024-03-02T06:48:15;4.28;;;0.30;;
55114;SDS011;41010;53.252;5.786;2024-03-02T06:50:45;1.15;;;0.30;;
55114;SDS011;41010;53.252;5.786;2024-03-02T06:53:13;0.85;;;0.30;;
55114;SDS011;41010;53.252;5.786;2024-03-02T06:55:42;1.20;;;0.32;;
55114;SDS011;41010;53.252;5.786;2024-03-02T06:58:12;0.77;;;0.30;;
55114;SDS011;41010;53.252;5.786;2024-03-02T07:00:40;1.13;;;0.43;;
55114;SDS011;41010;53.252;5.786;2024-03-02T07:03:07;2.05;;;0.30;;
55114;SDS011;41010;53.252;5.786;2024-03-02T07:05:34;2.97;;;0.60;;
55114;SDS011;41010;53.252;5.786;2024-03-02T07:08:02;0.70;;;0.40;;
55114;SDS011;41010;53.252;5.786;2024-03-02T07:10:30;1.58;;;0.47;;
55114;SDS011;41010;53.252;5.786;2024-03-02T07:12:57;0.63;;;0.40;;
55114;SDS011;41010;53.252;5.786;2024-03-02T07:15:26;0.90;;;0.50;;
55114;SDS011;41010;53.252;5.786;2024-03-02T07:18:12;0.88;;;0.38;;
55114;SDS011;41010;53.252;5.786;2024-03-02T07:20:39;1.23;;;0.50;;
55114;SDS011;41010;53.252;5.786;2024-03-02T07:23:06;0.90;;;0.50;;
55114;SDS011;41010;53.252;5.786;2024-03-02T07:25:34;0.82;;;0.40;;
55114;SDS011;41010;53.252;5.786;2024-03-02T07:28:01;2.83;;;0.75;;
55114;SDS011;41010;53.252;5.786;2024-03-02T07:30:30;1.77;;;0.50;;
55114;SDS011;41010;53.252;5.786;2024-03-02T07:32:58;2.78;;;0.63;;
55114;SDS011;41010;53.252;5.786;2024-03-02T07:35:26;2.58;;;0.70;;
55114;SDS011;41010;53.252;5.786;2024-03-02T07:37:53;3.25;;;0.60;;
55114;SDS011;41010;53.252;5.786;2024-03-02T07:40:21;1.50;;;0.65;;
55114;SDS011;41010;53.252;5.786;2024-03-02T07:42:49;1.83;;;0.60;;
55114;SDS011;41010;53.252;5.786;2024-03-02T07:45:16;1.27;;;0.80;;
55114;SDS011;41010;53.252;5.786;2024-03-02T07:47:45;1.38;;;0.63;;
55114;SDS011;41010;53.252;5.786;2024-03-02T07:50:12;2.30;;;0.55;;
55114;SDS011;41010;53.252;5.786;2024-03-02T07:52:40;1.95;;;0.70;;
55114;SDS011;41010;53.252;5.786;2024-03-02T07:55:07;1.25;;;0.70;;
55114;SDS011;41010;53.252;5.786;2024-03-02T07:57:34;1.23;;;0.65;;
55114;SDS011;41010;53.252;5.786;2024-03-02T08:00:02;1.30;;;0.40;;
55114;SDS011;41010;53.252;5.786;2024-03-02T08:02:29;1.85;;;0.60;;
55114;SDS011;41010;53.252;5.786;2024-03-02T08:04:58;1.52;;;0.50;;
55114;SDS011;41010;53.252;5.786;2024-03-02T08:07:25;1.00;;;0.60;;
55114;SDS011;41010;53.252;5.786;2024-03-02T08:09:52;3.97;;;0.60;;
55114;SDS011;41010;53.252;5.786;2024-03-02T08:12:19;1.30;;;0.50;;
55114;SDS011;41010;53.252;5.786;2024-03-02T08:14:48;0.60;;;0.40;;
55114;SDS011;41010;53.252;5.786;2024-03-02T08:17:16;0.77;;;0.43;;
55114;SDS011;41010;53.252;5.786;2024-03-02T08:19:43;0.90;;;0.50;;
55114;SDS011;41010;53.252;5.786;2024-03-02T08:22:14;2.88;;;0.35;;
55114;SDS011;41010;53.252;5.786;2024-03-02T08:24:42;3.10;;;0.65;;
55114;SDS011;41010;53.252;5.786;2024-03-02T08:27:09;0.90;;;0.47;;
55114;SDS011;41010;53.252;5.786;2024-03-02T08:29:37;1.23;;;0.50;;
55114;SDS011;41010;53.252;5.786;2024-03-02T08:32:04;3.25;;;0.63;;
55114;SDS011;41010;53.252;5.786;2024-03-02T08:34:32;1.00;;;0.40;;
55114;SDS011;41010;53.252;5.786;2024-03-02T08:37:00;1.98;;;0.55;;
55114;SDS011;41010;53.252;5.786;2024-03-02T08:39:29;2.42;;;0.70;;
55114;SDS011;41010;53.252;5.786;2024-03-02T08:41:56;1.65;;;0.50;;
55114;SDS011;41010;53.252;5.786;2024-03-02T08:44:24;1.48;;;0.55;;
55114;SDS011;41010;53.252;5.786;2024-03-02T08:46:51;2.17;;;0.50;;
55114;SDS011;41010;53.252;5.786;2024-03-02T08:49:18;1.42;;;0.47;;
55114;SDS011;41010;53.252;5.786;2024-03-02T08:51:45;2.80;;;0.40;;
55114;SDS011;41010;53.252;5.786;2024-03-02T08:54:19;2.58;;;0.57;;
55114;SDS011;41010;53.252;5.786;2024-03-02T08:56:48;1.27;;;0.40;;
55114;SDS011;41010;53.252;5.786;2024-03-02T08:59:15;2.05;;;0.40;;
55114;SDS011;41010;53.252;5.786;2024-03-02T09:01:42;2.42;;;0.32;;
55114;SDS011;41010;53.252;5.786;2024-03-02T09:04:10;0.88;;;0.30;;
55114;SDS011;41010;53.252;5.786;2024-03-02T09:06:37;2.17;;;0.40;;
55114;SDS011;41010;53.252;5.786;2024-03-02T09:09:05;2.03;;;0.50;;
55114;SDS011;41010;53.252;5.786;2024-03-02T09:11:32;6.95;;;0.73;;
55114;SDS011;41010;53.252;5.786;2024-03-02T09:14:01;2.33;;;0.60;;
55114;SDS011;41010;53.252;5.786;2024-03-02T09:16:28;1.60;;;0.40;;
55114;SDS011;41010;53.252;5.786;2024-03-02T09:18:56;2.15;;;0.50;;
55114;SDS011;41010;53.252;5.786;2024-03-02T09:21:23;3.13;;;0.75;;
55114;SDS011;41010;53.252;5.786;2024-03-02T09:23:51;3.10;;;0.50;;
55114;SDS011;41010;53.252;5.786;2024-03-02T09:26:18;1.58;;;0.28;;
55114;SDS011;41010;53.252;5.786;2024-03-02T09:28:45;2.95;;;0.52;;
55114;SDS011;41010;53.252;5.786;2024-03-02T09:31:14;1.55;;;0.40;;
55114;SDS011;41010;53.252;5.786;2024-03-02T09:33:41;3.25;;;0.60;;
55114;SDS011;41010;53.252;5.786;2024-03-02T09:36:16;2.67;;;0.50;;
55114;SDS011;41010;53.252;5.786;2024-03-02T09:38:43;1.88;;;0.40;;
55114;SDS011;41010;53.252;5.786;2024-03-02T09:41:11;1.17;;;0.40;;
55114;SDS011;41010;53.252;5.786;2024-03-02T09:43:38;3.35;;;0.40;;
55114;SDS011;41010;53.252;5.786;2024-03-02T09:46:06;1.45;;;0.30;;
55114;SDS011;41010;53.252;5.786;2024-03-02T09:48:35;2.10;;;0.40;;
55114;SDS011;41010;53.252;5.786;2024-03-02T09:51:02;1.58;;;0.50;;
55114;SDS011;41010;53.252;5.786;2024-03-02T09:53:31;3.03;;;0.65;;
55114;SDS011;41010;53.252;5.786;2024-03-02T09:55:59;0.95;;;0.40;;
55114;SDS011;41010;53.252;5.786;2024-03-02T09:58:26;2.97;;;0.45;;
55114;SDS011;41010;53.252;5.786;2024-03-02T10:00:53;3.33;;;0.57;;
55114;SDS011;41010;53.252;5.786;2024-03-02T10:03:20;2.03;;;0.40;;
55114;SDS011;41010;53.252;5.786;2024-03-02T10:05:50;3.08;;;0.30;;
55114;SDS011;41010;53.252;5.786;2024-03-02T10:08:18;1.65;;;0.40;;
55114;SDS011;41010;53.252;5.786;2024-03-02T10:10:45;1.23;;;0.35;;
55114;SDS011;41010;53.252;5.786;2024-03-02T10:13:13;2.47;;;0.50;;
55114;SDS011;41010;53.252;5.786;2024-03-02T10:15:41;4.88;;;1.02;;
55114;SDS011;41010;53.252;5.786;2024-03-02T10:18:09;0.98;;;0.30;;
55114;SDS011;41010;53.252;5.786;2024-03-02T10:20:37;3.58;;;0.40;;
55114;SDS011;41010;53.252;5.786;2024-03-02T10:23:12;1.67;;;0.40;;
55114;SDS011;41010;53.252;5.786;2024-03-02T10:25:40;2.40;;;0.43;;
55114;SDS011;41010;53.252;5.786;2024-03-02T10:28:07;1.35;;;0.40;;
55114;SDS011;41010;53.252;5.786;2024-03-02T10:30:34;1.42;;;0.30;;
55114;SDS011;41010;53.252;5.786;2024-03-02T10:33:02;1.27;;;0.35;;
55114;SDS011;41010;53.252;5.786;2024-03-02T10:35:29;5.32;;;0.50;;
55114;SDS011;41010;53.252;5.786;2024-03-02T10:38:01;3.50;;;0.45;;
55114;SDS011;41010;53.252;5.786;2024-03-02T10:40:31;1.88;;;0.40;;
55114;SDS011;41010;53.252;5.786;2024-03-02T10:42:59;1.77;;;0.50;;
55114;SDS011;41010;53.252;5.786;2024-03-02T10:45:30;2.10;;;0.50;;
55114;SDS011;41010;53.252;5.786;2024-03-02T10:47:58;1.45;;;0.63;;
55114;SDS011;41010;53.252;5.786;2024-03-02T10:50:25;3.13;;;0.52;;
55114;SDS011;41010;53.252;5.786;2024-03-02T10:52:52;3.03;;;0.32;;
55114;SDS011;41010;53.252;5.786;2024-03-02T10:55:19;2.20;;;0.40;;
55114;SDS011;41010;53.252;5.786;2024-03-02T10:57:50;3.58;;;0.38;;
55114;SDS011;41010;53.252;5.786;2024-03-02T11:00:18;2.65;;;0.55;;
55114;SDS011;41010;53.252;5.786;2024-03-02T11:02:50;2.70;;;0.50;;
55114;SDS011;41010;53.252;5.786;2024-03-02T11:05:21;3.78;;;0.52;;
55114;SDS011;41010;53.252;5.786;2024-03-02T11:07:51;4.07;;;0.47;;
55114;SDS011;41010;53.252;5.786;2024-03-02T11:10:20;3.80;;;0.70;;
55114;SDS011;41010;53.252;5.786;2024-03-02T11:12:51;5.75;;;0.52;;
55114;SDS011;41010;53.252;5.786;2024-03-02T11:15:20;1.90;;;0.50;;
55114;SDS011;41010;53.252;5.786;2024-03-02T11:17:47;1.67;;;0.40;;
55114;SDS011;41010;53.252;5.786;2024-03-02T11:20:15;1.27;;;0.22;;
55114;SDS011;41010;53.252;5.786;2024-03-02T11:22:44;2.15;;;0.30;;
55114;SDS011;41010;53.252;5.786;2024-03-02T11:25:22;3.05;;;0.32;;
55114;SDS011;41010;53.252;5.786;2024-03-02T11:28:00;2.22;;;0.50;;
55114;SDS011;41010;53.252;5.786;2024-03-02T11:33:14;3.25;;;0.40;;
55114;SDS011;41010;53.252;5.786;2024-03-02T11:35:42;3.00;;;0.50;;
55114;SDS011;41010;53.252;5.786;2024-03-02T11:38:11;5.20;;;0.90;;
55114;SDS011;41010;53.252;5.786;2024-03-02T11:40:39;3.60;;;1.00;;
55114;SDS011;41010;53.252;5.786;2024-03-02T11:43:08;3.35;;;0.60;;
55114;SDS011;41010;53.252;5.786;2024-03-02T11:45:36;3.08;;;0.45;;
55114;SDS011;41010;53.252;5.786;2024-03-02T11:48:05;7.00;;;0.70;;
55114;SDS011;41010;53.252;5.786;2024-03-02T11:50:33;4.20;;;0.55;;
55114;SDS011;41010;53.252;5.786;2024-03-02T11:53:02;1.73;;;0.43;;
55114;SDS011;41010;53.252;5.786;2024-03-02T11:55:33;1.58;;;0.40;;
55114;SDS011;41010;53.252;5.786;2024-03-02T11:58:02;1.45;;;0.40;;
55114;SDS011;41010;53.252;5.786;2024-03-02T12:00:31;3.28;;;0.90;;
55114;SDS011;41010;53.252;5.786;2024-03-02T12:03:01;1.77;;;0.32;;
55114;SDS011;41010;53.252;5.786;2024-03-02T12:05:28;1.70;;;0.55;;
55114;SDS011;41010;53.252;5.786;2024-03-02T12:07:57;0.85;;;0.30;;
55114;SDS011;41010;53.252;5.786;2024-03-02T12:10:24;3.78;;;0.43;;
55114;SDS011;41010;53.252;5.786;2024-03-02T12:12:55;2.95;;;0.52;;
55114;SDS011;41010;53.252;5.786;2024-03-02T12:15:23;3.53;;;0.60;;
55114;SDS011;41010;53.252;5.786;2024-03-02T12:17:53;1.92;;;0.52;;
55114;SDS011;41010;53.252;5.786;2024-03-02T12:20:21;2.50;;;0.60;;
55114;SDS011;41010;53.252;5.786;2024-03-02T12:22:49;2.70;;;1.00;;
55114;SDS011;41010;53.252;5.786;2024-03-02T12:25:17;1.90;;;0.68;;
55114;SDS011;41010;53.252;5.786;2024-03-02T12:27:44;3.35;;;1.10;;
55114;SDS011;41010;53.252;5.786;2024-03-02T12:30:12;3.63;;;0.93;;
55114;SDS011;41010;53.252;5.786;2024-03-02T12:32:40;4.15;;;1.27;;
55114;SDS011;41010;53.252;5.786;2024-03-02T12:35:09;3.58;;;1.13;;
55114;SDS011;41010;53.252;5.786;2024-03-02T12:37:43;4.10;;;1.20;;
55114;SDS011;41010;53.252;5.786;2024-03-02T12:40:10;5.10;;;1.33;;
55114;SDS011;41010;53.252;5.786;2024-03-02T12:42:38;1.92;;;0.75;;
55114;SDS011;41010;53.252;5.786;2024-03-02T12:45:05;4.25;;;0.95;;
55114;SDS011;41010;53.252;5.786;2024-03-02T12:47:33;2.65;;;0.60;;
55114;SDS011;41010;53.252;5.786;2024-03-02T12:50:00;2.50;;;0.80;;
55114;SDS011;41010;53.252;5.786;2024-03-02T12:52:29;1.73;;;0.70;;
55114;SDS011;41010;53.252;5.786;2024-03-02T12:54:59;6.28;;;0.80;;
55114;SDS011;41010;53.252;5.786;2024-03-02T12:57:29;5.18;;;0.80;;
55114;SDS011;41010;53.252;5.786;2024-03-02T12:59:57;4.20;;;1.20;;
55114;SDS011;41010;53.252;5.786;2024-03-02T13:02:27;3.17;;;0.82;;
55114;SDS011;41010;53.252;5.786;2024-03-02T13:04:54;2.22;;;0.80;;
55114;SDS011;41010;53.252;5.786;2024-03-02T13:07:22;4.45;;;1.08;;
55114;SDS011;41010;53.252;5.786;2024-03-02T13:09:50;4.20;;;1.00;;
55114;SDS011;41010;53.252;5.786;2024-03-02T13:12:19;2.03;;;0.60;;
55114;SDS011;41010;53.252;5.786;2024-03-02T13:14:47;1.80;;;0.60;;
55114;SDS011;41010;53.252;5.786;2024-03-02T13:17:17;2.80;;;0.73;;
55114;SDS011;41010;53.252;5.786;2024-03-02T13:19:51;2.47;;;0.80;;
55114;SDS011;41010;53.252;5.786;2024-03-02T13:22:19;3.80;;;1.10;;
55114;SDS011;41010;53.252;5.786;2024-03-02T13:24:46;3.33;;;0.70;;
55114;SDS011;41010;53.252;5.786;2024-03-02T13:27:15;5.70;;;0.75;;
55114;SDS011;41010;53.252;5.786;2024-03-02T13:29:44;2.67;;;0.80;;
55114;SDS011;41010;53.252;5.786;2024-03-02T13:32:12;3.92;;;0.77;;
55114;SDS011;41010;53.252;5.786;2024-03-02T13:34:40;3.55;;;0.65;;
55114;SDS011;41010;53.252;5.786;2024-03-02T13:37:07;3.22;;;0.80;;
55114;SDS011;41010;53.252;5.786;2024-03-02T13:39:34;3.40;;;0.75;;
55114;SDS011;41010;53.252;5.786;2024-03-02T13:42:06;3.35;;;0.73;;
55114;SDS011;41010;53.252;5.786;2024-03-02T13:44:35;2.90;;;0.70;;
55114;SDS011;41010;53.252;5.786;2024-03-02T13:47:02;2.22;;;0.52;;
55114;SDS011;41010;53.252;5.786;2024-03-02T13:49:30;3.63;;;0.60;;
55114;SDS011;41010;53.252;5.786;2024-03-02T13:52:01;1.73;;;0.65;;
55114;SDS011;41010;53.252;5.786;2024-03-02T13:54:36;3.00;;;0.60;;
55114;SDS011;41010;53.252;5.786;2024-03-02T13:57:04;2.78;;;0.65;;
55114;SDS011;41010;53.252;5.786;2024-03-02T13:59:31;4.10;;;0.82;;
55114;SDS011;41010;53.252;5.786;2024-03-02T14:02:00;3.58;;;0.60;;
55114;SDS011;41010;53.252;5.786;2024-03-02T14:04:29;1.77;;;0.50;;
55114;SDS011;41010;53.252;5.786;2024-03-02T14:06:58;2.28;;;0.60;;
55114;SDS011;41010;53.252;5.786;2024-03-02T14:09:25;2.35;;;0.50;;
55114;SDS011;41010;53.252;5.786;2024-03-02T14:11:53;3.25;;;0.75;;
55114;SDS011;41010;53.252;5.786;2024-03-02T14:14:20;1.83;;;0.50;;
55114;SDS011;41010;53.252;5.786;2024-03-02T14:16:48;3.67;;;0.50;;
55114;SDS011;41010;53.252;5.786;2024-03-02T14:19:16;2.88;;;0.50;;
55114;SDS011;41010;53.252;5.786;2024-03-02T14:21:44;1.65;;;0.70;;
55114;SDS011;41010;53.252;5.786;2024-03-02T14:24:12;1.92;;;0.50;;
55114;SDS011;41010;53.252;5.786;2024-03-02T14:26:39;2.30;;;0.52;;
55114;SDS011;41010;53.252;5.786;2024-03-02T14:29:07;0.90;;;0.45;;
55114;SDS011;41010;53.252;5.786;2024-03-02T14:31:34;1.38;;;0.60;;
55114;SDS011;41010;53.252;5.786;2024-03-02T14:34:02;0.95;;;0.57;;
55114;SDS011;41010;53.252;5.786;2024-03-02T14:36:30;2.22;;;0.55;;
55114;SDS011;41010;53.252;5.786;2024-03-02T14:38:58;1.25;;;0.57;;
55114;SDS011;41010;53.252;5.786;2024-03-02T14:41:26;3.03;;;0.90;;
55114;SDS011;41010;53.252;5.786;2024-03-02T14:43:53;1.38;;;0.50;;
55114;SDS011;41010;53.252;5.786;2024-03-02T14:46:20;3.72;;;0.70;;
55114;SDS011;41010;53.252;5.786;2024-03-02T14:48:47;2.78;;;0.77;;
55114;SDS011;41010;53.252;5.786;2024-03-02T14:51:15;2.10;;;0.63;;
55114;SDS011;41010;53.252;5.786;2024-03-02T14:53:43;2.65;;;0.40;;
55114;SDS011;41010;53.252;5.786;2024-03-02T14:56:11;2.78;;;0.70;;